Lower Lake, CA

12:11 AM PDT on September 20, 2014 (GMT -0700)
Jerusalem Grade | Change Station
CLOSE
Current Station
Personal Weather Station
Location: Lower Lake, CA
Elevation: 1846 ft
Nearby Weather Stations

Elev 1846 ft 38.83 °N, 122.53 °W | Updated 1 minute ago

Clear
Clear
63.8 °F
Feels Like 63.8 °F
N
0.0
Wind Variable Wind from WSW
Gusts 0.0 mph

Today
High -- | Low -- °F
--% Chance of Precip.
Yesterday
High -- | Low -- °F
Precip. -- in
6:56 AM 7:10 PM
Waning Crescent, 14% visible
Pressure 29.88 in
Visibility 10.0 miles
Clouds Overcast 400 ft
Dew Point 57 °F
Humidity 78%
Rainfall 0.00 in
Snow Depth Not available.
UV 0 out of 12
Pollen Not available.
Air Quality Not available.
Flu Activity Not available.
SPECI KSTS 200702Z AUTO 18004KT 10SM OVC004 16/15 A2988 RMK AO2

More Conditions Fewer Conditions

Pressure 29.88 in
Visibility 10.0 miles
Clouds Overcast 400 ft
Dew Point 57 °F
Humidity 78%
Rainfall 0.00 in
Snow Depth Not available.
UV 0 out of 12
Pollen Not available.
Air Quality Not available.
Flu Activity Not available.
SPECI KSTS 200702Z AUTO 18004KT 10SM OVC004 16/15 A2988 RMK AO2

More Conditions Fewer Conditions

10-Day Weather Forecast

Almanac

Astronomy

Sep. 20, 2014 Rise Set
Actual Time 6:56 AM PDT 7:10 PM PDT
Civil Twilight 6:29 AM PDT 7:36 PM PDT
Nautical Twilight 5:58 AM PDT 8:07 PM PDT
Astronomical Twilight 5:26 AM PDT 8:39 PM PDT
Moon 3:41 AM PDT 5:15 PM PDT
Length of Visible Light 13h 07m
Length of Day
12h 14m
Tomorrow will be 2m 30s shorter.
Waning Crescent, 14% of the Moon is Illuminated
Today
Waning Crescent
Sep 24
New
Oct 1
First Quarter
Oct 8
Full
Oct 15
Last Quarter

Community

WunderPhotos

Upload Photos

1,754,792 photos uploaded!

WunderBlogs® & News

Nearby

Snow Depth

Station Depth Elevation
Hagan's Meadow 0 in 8000 ft
Heavenly Valley 0 in 8850 ft
CSS Lab 3 in 6900 ft
Leavitt Lake 0 in 9400 ft
Monitor Pass 1 in 8350 ft

Earthquake Activity

City Distance Mag. Time & Date
Livermore, California 90 miles 2.6 3:37 AM PDT
2014-09-19
The Geysers, California 11 miles 2.5 11:29 PM PDT
2014-09-17
Minimum magnitude displayed is 2.5.

Coastal Water Temperatures

Place Temperature
No Stations Reporting

Nearby Weather Stations